Terminal Aerodrome Forecast
Issued by NWS

Home | Current Version | Previous Version | Text Only | Print | Product List | Glossary On
Versions: 1 2 3 4 5 6 7 8 9 10 11 12 13 14 15 16 17 18 19 20 21 22 23
000
FTUS41 KBGM 030500
TAFELM
TAF
KELM 030539Z 0306/0406 VRB03KT P6SM BKN025
     FM031000 VRB04KT P6SM OVC120
     FM031700 18008KT 2SM -SN OVC015
     FM032000 18010KT 4SM -PL OVC015
     FM040100 21009KT 4SM -FZRA OVC015
     FM040400 21008KT 4SM -RA OVC015=

USA.gov is the U.S. government's official web portal to all federal, state and local government web resources and services.